sensor_id;sensor_type;location;lat;lon;timestamp;P1;durP1;ratioP1;P2;durP2;ratioP2
72791;SDS011;60907;53.268;8.764;2023-07-31T00:00:56;4.90;;;1.63;;
72791;SDS011;60907;53.268;8.764;2023-07-31T00:03:22;5.57;;;1.92;;
72791;SDS011;60907;53.268;8.764;2023-07-31T00:05:47;6.80;;;2.15;;
72791;SDS011;60907;53.268;8.764;2023-07-31T00:08:12;4.67;;;1.90;;
72791;SDS011;60907;53.268;8.764;2023-07-31T00:10:38;5.67;;;1.90;;
72791;SDS011;60907;53.268;8.764;2023-07-31T00:13:03;5.47;;;2.53;;
72791;SDS011;60907;53.268;8.764;2023-07-31T00:15:28;5.33;;;1.97;;
72791;SDS011;60907;53.268;8.764;2023-07-31T00:17:54;5.25;;;2.17;;
72791;SDS011;60907;53.268;8.764;2023-07-31T00:20:19;3.87;;;1.70;;
72791;SDS011;60907;53.268;8.764;2023-07-31T00:22:46;7.15;;;2.17;;
72791;SDS011;60907;53.268;8.764;2023-07-31T00:25:11;5.13;;;2.10;;
72791;SDS011;60907;53.268;8.764;2023-07-31T00:27:36;7.43;;;2.27;;
72791;SDS011;60907;53.268;8.764;2023-07-31T00:30:02;7.27;;;2.20;;
72791;SDS011;60907;53.268;8.764;2023-07-31T00:32:28;7.05;;;2.10;;
72791;SDS011;60907;53.268;8.764;2023-07-31T00:34:54;3.75;;;2.25;;
72791;SDS011;60907;53.268;8.764;2023-07-31T00:37:19;6.70;;;2.20;;
72791;SDS011;60907;53.268;8.764;2023-07-31T00:39:44;3.90;;;2.20;;
72791;SDS011;60907;53.268;8.764;2023-07-31T00:42:10;6.93;;;2.78;;
72791;SDS011;60907;53.268;8.764;2023-07-31T00:44:35;8.30;;;2.65;;
72791;SDS011;60907;53.268;8.764;2023-07-31T00:47:01;5.27;;;2.00;;
72791;SDS011;60907;53.268;8.764;2023-07-31T00:49:26;6.28;;;2.58;;
72791;SDS011;60907;53.268;8.764;2023-07-31T00:51:52;5.93;;;2.38;;
72791;SDS011;60907;53.268;8.764;2023-07-31T00:54:18;6.78;;;2.20;;
72791;SDS011;60907;53.268;8.764;2023-07-31T00:56:44;4.32;;;2.40;;
72791;SDS011;60907;53.268;8.764;2023-07-31T01:01:36;5.30;;;2.33;;
72791;SDS011;60907;53.268;8.764;2023-07-31T01:04:01;6.00;;;2.60;;
72791;SDS011;60907;53.268;8.764;2023-07-31T01:11:54;4.55;;;1.90;;
72791;SDS011;60907;53.268;8.764;2023-07-31T01:14:22;5.45;;;2.08;;
72791;SDS011;60907;53.268;8.764;2023-07-31T01:16:47;4.90;;;1.80;;
72791;SDS011;60907;53.268;8.764;2023-07-31T01:19:13;4.20;;;1.85;;
72791;SDS011;60907;53.268;8.764;2023-07-31T01:24:30;4.32;;;1.67;;
72791;SDS011;60907;53.268;8.764;2023-07-31T01:27:12;3.75;;;1.88;;
72791;SDS011;60907;53.268;8.764;2023-07-31T01:29:53;2.47;;;1.92;;
72791;SDS011;60907;53.268;8.764;2023-07-31T01:32:22;3.83;;;1.65;;
72791;SDS011;60907;53.268;8.764;2023-07-31T01:34:48;3.83;;;1.73;;
72791;SDS011;60907;53.268;8.764;2023-07-31T01:37:13;4.47;;;1.60;;
72791;SDS011;60907;53.268;8.764;2023-07-31T01:39:39;3.17;;;1.58;;
72791;SDS011;60907;53.268;8.764;2023-07-31T01:42:04;2.10;;;1.53;;
72791;SDS011;60907;53.268;8.764;2023-07-31T01:44:30;5.15;;;1.85;;
72791;SDS011;60907;53.268;8.764;2023-07-31T01:46:55;4.65;;;1.52;;
72791;SDS011;60907;53.268;8.764;2023-07-31T01:49:21;4.10;;;1.50;;
72791;SDS011;60907;53.268;8.764;2023-07-31T01:51:46;2.57;;;1.90;;
72791;SDS011;60907;53.268;8.764;2023-07-31T01:54:12;4.80;;;1.92;;
72791;SDS011;60907;53.268;8.764;2023-07-31T01:56:37;5.28;;;1.80;;
72791;SDS011;60907;53.268;8.764;2023-07-31T01:59:02;3.10;;;1.65;;
72791;SDS011;60907;53.268;8.764;2023-07-31T02:01:28;3.83;;;1.95;;
72791;SDS011;60907;53.268;8.764;2023-07-31T02:03:53;3.25;;;1.73;;
72791;SDS011;60907;53.268;8.764;2023-07-31T02:06:19;4.35;;;1.70;;
72791;SDS011;60907;53.268;8.764;2023-07-31T02:08:44;3.95;;;1.63;;
72791;SDS011;60907;53.268;8.764;2023-07-31T02:11:10;2.90;;;1.60;;
72791;SDS011;60907;53.268;8.764;2023-07-31T02:13:35;6.43;;;1.63;;
72791;SDS011;60907;53.268;8.764;2023-07-31T02:16:01;3.08;;;2.05;;
72791;SDS011;60907;53.268;8.764;2023-07-31T02:18:26;2.25;;;1.63;;
72791;SDS011;60907;53.268;8.764;2023-07-31T02:20:52;1.73;;;1.60;;
72791;SDS011;60907;53.268;8.764;2023-07-31T02:23:18;3.30;;;1.50;;
72791;SDS011;60907;53.268;8.764;2023-07-31T02:25:44;3.88;;;2.13;;
72791;SDS011;60907;53.268;8.764;2023-07-31T02:28:09;2.20;;;1.60;;
72791;SDS011;60907;53.268;8.764;2023-07-31T02:30:35;3.10;;;1.73;;
72791;SDS011;60907;53.268;8.764;2023-07-31T02:33:00;2.35;;;1.70;;
72791;SDS011;60907;53.268;8.764;2023-07-31T02:35:26;2.22;;;1.10;;
72791;SDS011;60907;53.268;8.764;2023-07-31T02:37:51;4.00;;;2.13;;
72791;SDS011;60907;53.268;8.764;2023-07-31T02:40:17;1.75;;;1.48;;
72791;SDS011;60907;53.268;8.764;2023-07-31T02:42:42;3.53;;;1.88;;
72791;SDS011;60907;53.268;8.764;2023-07-31T02:45:08;2.58;;;1.80;;
72791;SDS011;60907;53.268;8.764;2023-07-31T02:47:33;2.75;;;1.77;;
72791;SDS011;60907;53.268;8.764;2023-07-31T02:49:59;4.72;;;2.15;;
72791;SDS011;60907;53.268;8.764;2023-07-31T02:52:25;3.10;;;1.80;;
72791;SDS011;60907;53.268;8.764;2023-07-31T02:54:50;3.30;;;2.17;;
72791;SDS011;60907;53.268;8.764;2023-07-31T02:57:16;3.22;;;2.10;;
72791;SDS011;60907;53.268;8.764;2023-07-31T02:59:41;5.05;;;2.38;;
72791;SDS011;60907;53.268;8.764;2023-07-31T03:02:07;2.65;;;2.08;;
72791;SDS011;60907;53.268;8.764;2023-07-31T03:04:32;2.67;;;2.17;;
72791;SDS011;60907;53.268;8.764;2023-07-31T03:06:57;6.03;;;2.40;;
72791;SDS011;60907;53.268;8.764;2023-07-31T03:09:23;3.50;;;2.27;;
72791;SDS011;60907;53.268;8.764;2023-07-31T03:11:48;2.87;;;2.30;;
72791;SDS011;60907;53.268;8.764;2023-07-31T03:14:13;3.53;;;2.23;;
72791;SDS011;60907;53.268;8.764;2023-07-31T03:16:39;4.67;;;2.50;;
72791;SDS011;60907;53.268;8.764;2023-07-31T03:19:04;3.25;;;2.03;;
72791;SDS011;60907;53.268;8.764;2023-07-31T03:21:30;4.43;;;2.73;;
72791;SDS011;60907;53.268;8.764;2023-07-31T03:23:55;5.67;;;2.47;;
72791;SDS011;60907;53.268;8.764;2023-07-31T03:26:20;6.53;;;2.30;;
72791;SDS011;60907;53.268;8.764;2023-07-31T03:28:46;4.72;;;2.40;;
72791;SDS011;60907;53.268;8.764;2023-07-31T03:31:11;7.75;;;2.65;;
72791;SDS011;60907;53.268;8.764;2023-07-31T03:33:37;5.03;;;2.93;;
72791;SDS011;60907;53.268;8.764;2023-07-31T03:36:02;4.93;;;3.30;;
72791;SDS011;60907;53.268;8.764;2023-07-31T03:38:28;3.65;;;2.53;;
72791;SDS011;60907;53.268;8.764;2023-07-31T03:40:53;4.25;;;2.95;;
72791;SDS011;60907;53.268;8.764;2023-07-31T03:43:19;4.05;;;2.67;;
72791;SDS011;60907;53.268;8.764;2023-07-31T03:45:44;5.32;;;3.15;;
72791;SDS011;60907;53.268;8.764;2023-07-31T03:48:10;4.82;;;3.47;;
72791;SDS011;60907;53.268;8.764;2023-07-31T03:50:35;5.28;;;3.10;;
72791;SDS011;60907;53.268;8.764;2023-07-31T03:53:00;5.63;;;3.13;;
72791;SDS011;60907;53.268;8.764;2023-07-31T03:55:26;6.87;;;3.60;;
72791;SDS011;60907;53.268;8.764;2023-07-31T03:57:51;4.77;;;3.27;;
72791;SDS011;60907;53.268;8.764;2023-07-31T04:00:16;5.55;;;2.90;;
72791;SDS011;60907;53.268;8.764;2023-07-31T04:02:42;5.60;;;2.85;;
72791;SDS011;60907;53.268;8.764;2023-07-31T04:05:07;5.95;;;3.70;;
72791;SDS011;60907;53.268;8.764;2023-07-31T04:07:33;6.10;;;3.25;;
72791;SDS011;60907;53.268;8.764;2023-07-31T04:09:59;8.60;;;4.20;;
72791;SDS011;60907;53.268;8.764;2023-07-31T04:12:25;8.70;;;4.10;;
72791;SDS011;60907;53.268;8.764;2023-07-31T04:14:50;6.93;;;3.50;;
72791;SDS011;60907;53.268;8.764;2023-07-31T04:17:17;5.27;;;3.27;;
72791;SDS011;60907;53.268;8.764;2023-07-31T04:19:42;6.07;;;3.13;;
72791;SDS011;60907;53.268;8.764;2023-07-31T04:22:08;6.28;;;3.30;;
72791;SDS011;60907;53.268;8.764;2023-07-31T04:24:33;5.23;;;2.90;;
72791;SDS011;60907;53.268;8.764;2023-07-31T04:26:59;5.60;;;3.17;;
72791;SDS011;60907;53.268;8.764;2023-07-31T04:29:24;4.43;;;3.30;;
72791;SDS011;60907;53.268;8.764;2023-07-31T04:31:49;3.87;;;3.07;;
72791;SDS011;60907;53.268;8.764;2023-07-31T04:34:15;6.80;;;3.60;;
72791;SDS011;60907;53.268;8.764;2023-07-31T04:36:40;4.53;;;3.17;;
72791;SDS011;60907;53.268;8.764;2023-07-31T04:39:05;4.90;;;3.25;;
72791;SDS011;60907;53.268;8.764;2023-07-31T04:41:31;4.85;;;3.20;;
72791;SDS011;60907;53.268;8.764;2023-07-31T04:43:56;4.22;;;2.78;;
72791;SDS011;60907;53.268;8.764;2023-07-31T04:46:22;5.18;;;3.10;;
72791;SDS011;60907;53.268;8.764;2023-07-31T04:48:47;4.43;;;3.10;;
72791;SDS011;60907;53.268;8.764;2023-07-31T04:51:12;3.83;;;2.67;;
72791;SDS011;60907;53.268;8.764;2023-07-31T04:53:38;4.35;;;2.70;;
72791;SDS011;60907;53.268;8.764;2023-07-31T04:56:04;4.63;;;3.10;;
72791;SDS011;60907;53.268;8.764;2023-07-31T04:58:29;5.70;;;2.85;;
72791;SDS011;60907;53.268;8.764;2023-07-31T05:00:54;6.05;;;3.03;;
72791;SDS011;60907;53.268;8.764;2023-07-31T05:03:20;4.47;;;3.00;;
72791;SDS011;60907;53.268;8.764;2023-07-31T05:05:45;4.93;;;3.42;;
72791;SDS011;60907;53.268;8.764;2023-07-31T05:08:11;4.77;;;3.10;;
72791;SDS011;60907;53.268;8.764;2023-07-31T05:10:36;4.32;;;3.22;;
72791;SDS011;60907;53.268;8.764;2023-07-31T05:13:02;5.07;;;2.97;;
72791;SDS011;60907;53.268;8.764;2023-07-31T05:15:28;4.68;;;3.50;;
72791;SDS011;60907;53.268;8.764;2023-07-31T05:17:53;4.40;;;3.13;;
72791;SDS011;60907;53.268;8.764;2023-07-31T05:20:19;3.92;;;2.65;;
72791;SDS011;60907;53.268;8.764;2023-07-31T05:22:44;4.00;;;3.20;;
72791;SDS011;60907;53.268;8.764;2023-07-31T05:25:09;5.37;;;3.50;;
72791;SDS011;60907;53.268;8.764;2023-07-31T05:27:35;4.33;;;2.87;;
72791;SDS011;60907;53.268;8.764;2023-07-31T05:30:00;4.22;;;3.05;;
72791;SDS011;60907;53.268;8.764;2023-07-31T05:32:26;4.85;;;3.13;;
72791;SDS011;60907;53.268;8.764;2023-07-31T05:34:51;4.32;;;3.35;;
72791;SDS011;60907;53.268;8.764;2023-07-31T05:37:17;4.72;;;3.25;;
72791;SDS011;60907;53.268;8.764;2023-07-31T05:39:43;5.25;;;3.30;;
72791;SDS011;60907;53.268;8.764;2023-07-31T05:42:08;5.07;;;3.20;;
72791;SDS011;60907;53.268;8.764;2023-07-31T05:44:34;4.93;;;3.20;;
72791;SDS011;60907;53.268;8.764;2023-07-31T05:46:59;4.07;;;2.85;;
72791;SDS011;60907;53.268;8.764;2023-07-31T05:49:24;5.83;;;2.93;;
72791;SDS011;60907;53.268;8.764;2023-07-31T05:51:50;4.07;;;2.73;;
72791;SDS011;60907;53.268;8.764;2023-07-31T05:54:15;3.97;;;2.58;;
72791;SDS011;60907;53.268;8.764;2023-07-31T05:56:41;4.72;;;3.10;;
72791;SDS011;60907;53.268;8.764;2023-07-31T05:59:06;4.33;;;2.70;;
72791;SDS011;60907;53.268;8.764;2023-07-31T06:01:32;4.68;;;2.53;;
72791;SDS011;60907;53.268;8.764;2023-07-31T06:03:57;3.57;;;2.70;;
72791;SDS011;60907;53.268;8.764;2023-07-31T06:06:22;3.13;;;2.03;;
72791;SDS011;60907;53.268;8.764;2023-07-31T06:08:48;4.05;;;2.78;;
72791;SDS011;60907;53.268;8.764;2023-07-31T06:11:14;3.88;;;2.30;;
72791;SDS011;60907;53.268;8.764;2023-07-31T06:13:40;3.08;;;2.30;;
72791;SDS011;60907;53.268;8.764;2023-07-31T06:16:05;4.40;;;2.28;;
72791;SDS011;60907;53.268;8.764;2023-07-31T06:18:34;2.22;;;1.92;;
72791;SDS011;60907;53.268;8.764;2023-07-31T06:20:59;3.22;;;1.83;;
72791;SDS011;60907;53.268;8.764;2023-07-31T06:23:25;3.55;;;2.10;;
72791;SDS011;60907;53.268;8.764;2023-07-31T06:25:50;2.45;;;1.75;;
72791;SDS011;60907;53.268;8.764;2023-07-31T06:28:15;3.53;;;1.80;;
72791;SDS011;60907;53.268;8.764;2023-07-31T06:30:41;2.70;;;1.87;;
72791;SDS011;60907;53.268;8.764;2023-07-31T06:33:06;2.35;;;1.50;;
72791;SDS011;60907;53.268;8.764;2023-07-31T06:35:32;3.08;;;1.52;;
72791;SDS011;60907;53.268;8.764;2023-07-31T06:37:57;3.13;;;1.57;;
72791;SDS011;60907;53.268;8.764;2023-07-31T06:40:22;1.57;;;1.20;;
72791;SDS011;60907;53.268;8.764;2023-07-31T06:42:48;2.73;;;1.47;;
72791;SDS011;60907;53.268;8.764;2023-07-31T06:45:13;1.40;;;1.30;;
72791;SDS011;60907;53.268;8.764;2023-07-31T06:47:38;1.47;;;1.07;;
72791;SDS011;60907;53.268;8.764;2023-07-31T06:50:04;1.77;;;1.00;;
72791;SDS011;60907;53.268;8.764;2023-07-31T06:52:30;1.25;;;1.00;;
72791;SDS011;60907;53.268;8.764;2023-07-31T06:55:02;1.40;;;1.02;;
72791;SDS011;60907;53.268;8.764;2023-07-31T06:59:54;1.47;;;1.20;;
72791;SDS011;60907;53.268;8.764;2023-07-31T07:02:19;1.30;;;1.10;;
72791;SDS011;60907;53.268;8.764;2023-07-31T07:04:45;1.60;;;1.00;;
72791;SDS011;60907;53.268;8.764;2023-07-31T07:07:10;2.13;;;1.10;;
72791;SDS011;60907;53.268;8.764;2023-07-31T07:09:35;1.27;;;1.10;;
72791;SDS011;60907;53.268;8.764;2023-07-31T07:12:01;1.30;;;1.00;;
72791;SDS011;60907;53.268;8.764;2023-07-31T07:14:26;1.77;;;1.10;;
72791;SDS011;60907;53.268;8.764;2023-07-31T07:16:51;2.30;;;1.30;;
72791;SDS011;60907;53.268;8.764;2023-07-31T07:19:17;2.38;;;1.30;;
72791;SDS011;60907;53.268;8.764;2023-07-31T07:21:42;1.80;;;1.40;;
72791;SDS011;60907;53.268;8.764;2023-07-31T07:24:11;1.85;;;1.40;;
72791;SDS011;60907;53.268;8.764;2023-07-31T07:26:36;2.00;;;1.25;;
72791;SDS011;60907;53.268;8.764;2023-07-31T07:29:01;1.50;;;1.20;;
72791;SDS011;60907;53.268;8.764;2023-07-31T07:31:27;1.52;;;1.20;;
72791;SDS011;60907;53.268;8.764;2023-07-31T07:33:53;1.80;;;0.93;;
72791;SDS011;60907;53.268;8.764;2023-07-31T07:36:19;1.10;;;0.90;;
72791;SDS011;60907;53.268;8.764;2023-07-31T07:38:44;2.85;;;0.95;;
72791;SDS011;60907;53.268;8.764;2023-07-31T07:41:10;1.53;;;0.80;;
72791;SDS011;60907;53.268;8.764;2023-07-31T07:43:35;1.23;;;0.70;;
72791;SDS011;60907;53.268;8.764;2023-07-31T07:46:00;0.98;;;0.57;;
72791;SDS011;60907;53.268;8.764;2023-07-31T07:48:26;0.70;;;0.57;;
72791;SDS011;60907;53.268;8.764;2023-07-31T07:50:51;1.00;;;0.65;;
72791;SDS011;60907;53.268;8.764;2023-07-31T07:53:17;1.00;;;0.63;;
72791;SDS011;60907;53.268;8.764;2023-07-31T07:55:42;1.13;;;0.70;;
72791;SDS011;60907;53.268;8.764;2023-07-31T07:58:07;0.80;;;0.60;;
72791;SDS011;60907;53.268;8.764;2023-07-31T08:00:33;0.80;;;0.63;;
72791;SDS011;60907;53.268;8.764;2023-07-31T08:02:58;1.20;;;0.50;;
72791;SDS011;60907;53.268;8.764;2023-07-31T08:05:24;1.20;;;0.55;;
72791;SDS011;60907;53.268;8.764;2023-07-31T08:07:50;0.95;;;0.60;;
72791;SDS011;60907;53.268;8.764;2023-07-31T08:10:15;0.93;;;0.70;;
72791;SDS011;60907;53.268;8.764;2023-07-31T08:12:40;0.65;;;0.50;;
72791;SDS011;60907;53.268;8.764;2023-07-31T08:15:06;1.02;;;0.30;;
72791;SDS011;60907;53.268;8.764;2023-07-31T08:17:32;0.80;;;0.35;;
72791;SDS011;60907;53.268;8.764;2023-07-31T08:19:57;0.70;;;0.60;;
72791;SDS011;60907;53.268;8.764;2023-07-31T08:22:23;0.47;;;0.38;;
72791;SDS011;60907;53.268;8.764;2023-07-31T08:24:49;0.60;;;0.60;;
72791;SDS011;60907;53.268;8.764;2023-07-31T08:27:14;0.80;;;0.50;;
72791;SDS011;60907;53.268;8.764;2023-07-31T08:29:39;1.43;;;0.50;;
72791;SDS011;60907;53.268;8.764;2023-07-31T08:32:05;0.55;;;0.30;;
72791;SDS011;60907;53.268;8.764;2023-07-31T08:34:31;5.40;;;2.85;;
72791;SDS011;60907;53.268;8.764;2023-07-31T08:36:56;10.93;;;3.50;;
72791;SDS011;60907;53.268;8.764;2023-07-31T08:39:21;11.70;;;3.97;;
72791;SDS011;60907;53.268;8.764;2023-07-31T08:41:47;12.07;;;5.17;;
72791;SDS011;60907;53.268;8.764;2023-07-31T08:44:12;11.82;;;5.75;;
72791;SDS011;60907;53.268;8.764;2023-07-31T08:46:39;16.20;;;6.22;;
72791;SDS011;60907;53.268;8.764;2023-07-31T08:49:05;18.00;;;5.72;;
72791;SDS011;60907;53.268;8.764;2023-07-31T08:51:34;18.27;;;7.40;;
72791;SDS011;60907;53.268;8.764;2023-07-31T08:54:00;19.65;;;7.30;;
72791;SDS011;60907;53.268;8.764;2023-07-31T08:56:26;20.33;;;8.05;;
72791;SDS011;60907;53.268;8.764;2023-07-31T08:58:52;21.75;;;8.15;;
72791;SDS011;60907;53.268;8.764;2023-07-31T09:01:18;15.07;;;7.78;;
72791;SDS011;60907;53.268;8.764;2023-07-31T09:03:43;18.52;;;8.05;;
72791;SDS011;60907;53.268;8.764;2023-07-31T09:06:09;22.25;;;7.70;;
72791;SDS011;60907;53.268;8.764;2023-07-31T09:08:35;16.92;;;7.22;;
72791;SDS011;60907;53.268;8.764;2023-07-31T09:11:01;15.30;;;6.93;;
72791;SDS011;60907;53.268;8.764;2023-07-31T09:13:30;16.60;;;6.93;;
72791;SDS011;60907;53.268;8.764;2023-07-31T09:15:56;20.40;;;8.98;;
72791;SDS011;60907;53.268;8.764;2023-07-31T09:18:21;20.95;;;8.75;;
72791;SDS011;60907;53.268;8.764;2023-07-31T09:21:00;21.15;;;9.52;;
72791;SDS011;60907;53.268;8.764;2023-07-31T09:26:07;19.23;;;7.82;;
72791;SDS011;60907;53.268;8.764;2023-07-31T09:28:32;18.80;;;8.20;;
72791;SDS011;60907;53.268;8.764;2023-07-31T09:30:57;16.83;;;7.53;;
72791;SDS011;60907;53.268;8.764;2023-07-31T09:33:23;13.95;;;7.55;;
72791;SDS011;60907;53.268;8.764;2023-07-31T09:35:48;16.52;;;7.45;;
72791;SDS011;60907;53.268;8.764;2023-07-31T09:38:14;18.75;;;7.03;;
72791;SDS011;60907;53.268;8.764;2023-07-31T09:40:41;15.30;;;6.72;;
72791;SDS011;60907;53.268;8.764;2023-07-31T09:43:09;12.80;;;6.60;;
72791;SDS011;60907;53.268;8.764;2023-07-31T09:45:39;14.82;;;6.90;;
72791;SDS011;60907;53.268;8.764;2023-07-31T09:48:06;12.27;;;6.20;;
72791;SDS011;60907;53.268;8.764;2023-07-31T09:50:36;10.75;;;5.68;;
72791;SDS011;60907;53.268;8.764;2023-07-31T09:53:03;13.30;;;6.90;;
72791;SDS011;60907;53.268;8.764;2023-07-31T09:55:29;14.88;;;6.50;;
72791;SDS011;60907;53.268;8.764;2023-07-31T09:57:54;14.00;;;5.80;;
72791;SDS011;60907;53.268;8.764;2023-07-31T10:00:21;11.88;;;5.75;;
72791;SDS011;60907;53.268;8.764;2023-07-31T10:02:50;13.52;;;6.32;;
72791;SDS011;60907;53.268;8.764;2023-07-31T10:05:16;12.13;;;5.32;;
72791;SDS011;60907;53.268;8.764;2023-07-31T10:07:43;14.13;;;5.78;;
72791;SDS011;60907;53.268;8.764;2023-07-31T10:10:13;18.88;;;7.40;;
72791;SDS011;60907;53.268;8.764;2023-07-31T10:12:39;12.90;;;6.40;;
72791;SDS011;60907;53.268;8.764;2023-07-31T10:15:04;17.80;;;5.93;;
72791;SDS011;60907;53.268;8.764;2023-07-31T10:17:30;16.92;;;6.22;;
72791;SDS011;60907;53.268;8.764;2023-07-31T10:19:58;33.50;;;7.78;;
72791;SDS011;60907;53.268;8.764;2023-07-31T10:22:28;15.30;;;7.32;;
72791;SDS011;60907;53.268;8.764;2023-07-31T10:24:54;12.43;;;7.10;;
72791;SDS011;60907;53.268;8.764;2023-07-31T10:27:20;12.07;;;6.47;;
72791;SDS011;60907;53.268;8.764;2023-07-31T10:29:45;12.27;;;6.17;;
72791;SDS011;60907;53.268;8.764;2023-07-31T10:32:13;12.73;;;5.35;;
72791;SDS011;60907;53.268;8.764;2023-07-31T10:34:40;9.18;;;4.97;;
72791;SDS011;60907;53.268;8.764;2023-07-31T10:37:21;9.25;;;4.95;;
72791;SDS011;60907;53.268;8.764;2023-07-31T10:40:01;8.40;;;4.68;;
72791;SDS011;60907;53.268;8.764;2023-07-31T10:45:10;9.02;;;3.83;;
72791;SDS011;60907;53.268;8.764;2023-07-31T10:50:22;8.65;;;4.80;;
72791;SDS011;60907;53.268;8.764;2023-07-31T10:52:53;7.65;;;4.28;;
72791;SDS011;60907;53.268;8.764;2023-07-31T10:55:26;8.23;;;4.20;;
72791;SDS011;60907;53.268;8.764;2023-07-31T10:57:56;7.85;;;4.10;;
72791;SDS011;60907;53.268;8.764;2023-07-31T11:00:31;8.57;;;4.30;;
72791;SDS011;60907;53.268;8.764;2023-07-31T11:03:06;5.90;;;3.78;;
72791;SDS011;60907;53.268;8.764;2023-07-31T11:08:23;7.03;;;4.13;;
72791;SDS011;60907;53.268;8.764;2023-07-31T11:10:51;5.40;;;3.58;;
72791;SDS011;60907;53.268;8.764;2023-07-31T11:13:45;5.65;;;4.22;;
72791;SDS011;60907;53.268;8.764;2023-07-31T11:16:14;5.68;;;3.80;;
72791;SDS011;60907;53.268;8.764;2023-07-31T11:18:40;6.05;;;4.00;;
72791;SDS011;60907;53.268;8.764;2023-07-31T11:21:07;6.53;;;3.25;;
72791;SDS011;60907;53.268;8.764;2023-07-31T11:23:33;4.75;;;3.22;;
72791;SDS011;60907;53.268;8.764;2023-07-31T11:25:59;6.97;;;3.58;;
72791;SDS011;60907;53.268;8.764;2023-07-31T11:28:25;6.05;;;3.28;;
72791;SDS011;60907;53.268;8.764;2023-07-31T11:30:50;4.23;;;2.93;;
72791;SDS011;60907;53.268;8.764;2023-07-31T11:33:16;6.40;;;3.70;;
72791;SDS011;60907;53.268;8.764;2023-07-31T11:35:44;5.40;;;3.40;;
72791;SDS011;60907;53.268;8.764;2023-07-31T11:38:27;3.65;;;2.83;;
72791;SDS011;60907;53.268;8.764;2023-07-31T11:40:53;4.72;;;3.08;;
72791;SDS011;60907;53.268;8.764;2023-07-31T11:43:21;5.03;;;2.92;;
72791;SDS011;60907;53.268;8.764;2023-07-31T11:45:54;3.55;;;3.00;;
72791;SDS011;60907;53.268;8.764;2023-07-31T11:48:21;3.97;;;2.70;;
72791;SDS011;60907;53.268;8.764;2023-07-31T11:50:49;4.95;;;2.97;;
72791;SDS011;60907;53.268;8.764;2023-07-31T11:53:24;2.58;;;2.30;;
72791;SDS011;60907;53.268;8.764;2023-07-31T11:55:52;2.58;;;2.30;;
72791;SDS011;60907;53.268;8.764;2023-07-31T11:58:17;2.42;;;2.22;;
72791;SDS011;60907;53.268;8.764;2023-07-31T12:00:43;3.88;;;2.42;;
72791;SDS011;60907;53.268;8.764;2023-07-31T12:03:08;2.77;;;2.10;;
72791;SDS011;60907;53.268;8.764;2023-07-31T12:05:35;2.42;;;2.00;;
72791;SDS011;60907;53.268;8.764;2023-07-31T12:08:01;2.95;;;2.10;;
72791;SDS011;60907;53.268;8.764;2023-07-31T12:10:34;2.05;;;1.85;;
72791;SDS011;60907;53.268;8.764;2023-07-31T12:15:29;2.10;;;1.58;;
72791;SDS011;60907;53.268;8.764;2023-07-31T12:17:58;1.58;;;1.30;;
72791;SDS011;60907;53.268;8.764;2023-07-31T12:20:24;1.75;;;1.00;;
72791;SDS011;60907;53.268;8.764;2023-07-31T12:22:49;1.30;;;0.90;;
72791;SDS011;60907;53.268;8.764;2023-07-31T12:25:15;1.37;;;1.27;;
72791;SDS011;60907;53.268;8.764;2023-07-31T12:27:44;1.25;;;1.15;;
72791;SDS011;60907;53.268;8.764;2023-07-31T12:30:26;2.88;;;1.42;;
72791;SDS011;60907;53.268;8.764;2023-07-31T12:32:52;1.60;;;1.25;;
72791;SDS011;60907;53.268;8.764;2023-07-31T12:35:17;2.80;;;1.53;;
72791;SDS011;60907;53.268;8.764;2023-07-31T12:37:43;2.10;;;1.97;;
72791;SDS011;60907;53.268;8.764;2023-07-31T12:40:08;1.70;;;1.38;;
72791;SDS011;60907;53.268;8.764;2023-07-31T12:42:34;2.28;;;1.85;;
72791;SDS011;60907;53.268;8.764;2023-07-31T12:45:00;2.47;;;2.27;;
72791;SDS011;60907;53.268;8.764;2023-07-31T12:47:25;1.60;;;1.50;;
72791;SDS011;60907;53.268;8.764;2023-07-31T12:49:50;4.27;;;1.47;;
72791;SDS011;60907;53.268;8.764;2023-07-31T12:52:16;2.07;;;1.87;;
72791;SDS011;60907;53.268;8.764;2023-07-31T12:54:41;2.00;;;1.80;;
72791;SDS011;60907;53.268;8.764;2023-07-31T12:57:06;1.75;;;1.65;;
72791;SDS011;60907;53.268;8.764;2023-07-31T12:59:32;2.00;;;1.67;;
72791;SDS011;60907;53.268;8.764;2023-07-31T13:01:57;1.63;;;1.53;;
72791;SDS011;60907;53.268;8.764;2023-07-31T13:04:23;2.00;;;1.80;;
72791;SDS011;60907;53.268;8.764;2023-07-31T13:06:48;2.27;;;2.00;;
72791;SDS011;60907;53.268;8.764;2023-07-31T13:09:13;1.93;;;1.70;;
72791;SDS011;60907;53.268;8.764;2023-07-31T13:11:42;2.05;;;1.85;;
72791;SDS011;60907;53.268;8.764;2023-07-31T13:14:07;2.67;;;2.17;;
72791;SDS011;60907;53.268;8.764;2023-07-31T13:16:33;2.73;;;2.17;;
72791;SDS011;60907;53.268;8.764;2023-07-31T13:18:58;3.13;;;2.42;;
72791;SDS011;60907;53.268;8.764;2023-07-31T13:21:24;3.53;;;2.70;;
72791;SDS011;60907;53.268;8.764;2023-07-31T13:23:49;2.73;;;2.50;;
72791;SDS011;60907;53.268;8.764;2023-07-31T13:26:14;4.15;;;2.30;;
72791;SDS011;60907;53.268;8.764;2023-07-31T13:28:40;3.63;;;3.20;;
72791;SDS011;60907;53.268;8.764;2023-07-31T13:31:05;3.10;;;2.80;;
72791;SDS011;60907;53.268;8.764;2023-07-31T13:33:30;3.33;;;2.50;;
72791;SDS011;60907;53.268;8.764;2023-07-31T13:35:56;3.03;;;2.60;;
72791;SDS011;60907;53.268;8.764;2023-07-31T13:38:21;3.23;;;2.87;;
72791;SDS011;60907;53.268;8.764;2023-07-31T13:40:47;5.03;;;3.83;;
72791;SDS011;60907;53.268;8.764;2023-07-31T13:43:12;3.50;;;2.50;;
72791;SDS011;60907;53.268;8.764;2023-07-31T13:45:37;2.42;;;2.22;;
72791;SDS011;60907;53.268;8.764;2023-07-31T13:48:03;3.40;;;2.10;;
72791;SDS011;60907;53.268;8.764;2023-07-31T13:50:28;3.08;;;2.08;;
72791;SDS011;60907;53.268;8.764;2023-07-31T13:52:54;4.13;;;2.28;;
72791;SDS011;60907;53.268;8.764;2023-07-31T13:55:20;4.68;;;2.70;;
72791;SDS011;60907;53.268;8.764;2023-07-31T13:57:46;4.35;;;2.88;;
72791;SDS011;60907;53.268;8.764;2023-07-31T14:00:12;4.57;;;3.40;;
72791;SDS011;60907;53.268;8.764;2023-07-31T14:02:38;4.57;;;3.25;;
72791;SDS011;60907;53.268;8.764;2023-07-31T14:05:04;4.95;;;3.80;;
72791;SDS011;60907;53.268;8.764;2023-07-31T14:07:31;4.93;;;3.55;;
72791;SDS011;60907;53.268;8.764;2023-07-31T14:09:57;5.28;;;3.90;;
72791;SDS011;60907;53.268;8.764;2023-07-31T14:12:22;4.73;;;3.83;;
72791;SDS011;60907;53.268;8.764;2023-07-31T14:14:47;4.00;;;3.03;;
72791;SDS011;60907;53.268;8.764;2023-07-31T14:17:13;5.78;;;3.55;;
72791;SDS011;60907;53.268;8.764;2023-07-31T14:19:38;4.75;;;3.50;;
72791;SDS011;60907;53.268;8.764;2023-07-31T14:22:04;5.65;;;3.42;;
72791;SDS011;60907;53.268;8.764;2023-07-31T14:24:29;5.07;;;3.58;;
72791;SDS011;60907;53.268;8.764;2023-07-31T14:26:55;6.75;;;4.00;;
72791;SDS011;60907;53.268;8.764;2023-07-31T14:29:20;6.90;;;4.25;;
72791;SDS011;60907;53.268;8.764;2023-07-31T14:31:46;5.18;;;3.33;;
72791;SDS011;60907;53.268;8.764;2023-07-31T14:34:11;6.35;;;4.18;;
72791;SDS011;60907;53.268;8.764;2023-07-31T14:36:37;5.30;;;3.92;;
72791;SDS011;60907;53.268;8.764;2023-07-31T14:39:02;5.47;;;4.13;;
72791;SDS011;60907;53.268;8.764;2023-07-31T14:41:27;5.72;;;3.95;;
72791;SDS011;60907;53.268;8.764;2023-07-31T14:43:53;5.93;;;3.50;;
72791;SDS011;60907;53.268;8.764;2023-07-31T14:46:18;6.13;;;3.70;;
72791;SDS011;60907;53.268;8.764;2023-07-31T14:48:43;7.83;;;4.03;;
72791;SDS011;60907;53.268;8.764;2023-07-31T14:51:09;7.40;;;4.00;;
72791;SDS011;60907;53.268;8.764;2023-07-31T14:53:34;7.20;;;4.38;;
72791;SDS011;60907;53.268;8.764;2023-07-31T14:56:00;7.47;;;4.23;;
72791;SDS011;60907;53.268;8.764;2023-07-31T14:58:25;7.50;;;4.37;;
72791;SDS011;60907;53.268;8.764;2023-07-31T15:00:50;7.93;;;4.13;;
72791;SDS011;60907;53.268;8.764;2023-07-31T15:03:16;5.97;;;3.72;;
72791;SDS011;60907;53.268;8.764;2023-07-31T15:05:41;7.17;;;3.63;;